Time;durP1;ratioP1;P1;durP2;ratioP2;P2;SDS_P1;SDS_P2;PMS_P1;PMS_P2;Temp;Humidity;BMP_temperature;BMP_pressure;BME280_temperature;BME280_humidity;BME280_pressure;Samples;Min_cycle;Max_cycle;Signal;HPM_P1;HPM_P2
2023/04/27 00:00:26;;;;;;;12.27;9.02;;;2.30;99.90;;;;;;5082638;28;20090;-67
2023/04/27 00:02:52;;;;;;;13.50;8.85;;;2.30;99.90;;;;;;5078089;28;20048;-67
2023/04/27 00:05:18;;;;;;;13.75;8.20;;;2.20;99.90;;;;;;5075307;28;20043;-67
2023/04/27 00:07:45;;;;;;;9.82;7.82;;;2.20;99.90;;;;;;5077616;28;20996;-67
2023/04/27 00:10:11;;;;;;;13.35;7.60;;;2.20;99.90;;;;;;5078120;28;20487;-67
2023/04/27 00:12:37;;;;;;;10.80;8.38;;;2.10;99.90;;;;;;5083457;28;20040;-67
2023/04/27 00:15:04;;;;;;;13.23;7.78;;;2.10;99.90;;;;;;5079503;28;20048;-67
2023/04/27 00:17:29;;;;;;;10.95;7.25;;;2.10;99.90;;;;;;5079178;28;20040;-67
2023/04/27 00:19:55;;;;;;;13.15;8.18;;;2.10;99.90;;;;;;5079411;28;20028;-67
2023/04/27 00:22:21;;;;;;;10.70;8.27;;;2.00;99.90;;;;;;5075074;28;20127;-67
2023/04/27 00:24:47;;;;;;;9.63;7.57;;;2.00;99.90;;;;;;5080045;28;20040;-67
2023/04/27 00:27:12;;;;;;;13.48;10.00;;;2.00;99.90;;;;;;5074666;28;20071;-67
2023/04/27 00:29:41;;;;;;;9.77;7.95;;;1.90;99.90;;;;;;5078529;28;20082;-68
2023/04/27 00:32:11;;;;;;;13.85;8.77;;;1.90;99.90;;;;;;5070628;28;20063;-67
2023/04/27 00:34:37;;;;;;;9.57;7.97;;;1.90;99.90;;;;;;5109187;27;20468;-67
2023/04/27 00:37:03;;;;;;;14.73;7.97;;;1.80;99.90;;;;;;5080455;28;20122;-68
2023/04/27 00:39:30;;;;;;;10.60;8.55;;;1.80;99.90;;;;;;5078744;28;20052;-68
2023/04/27 00:41:55;;;;;;;11.55;8.32;;;1.80;99.90;;;;;;5072769;28;20032;-68
2023/04/27 00:44:23;;;;;;;13.18;8.00;;;1.70;99.90;;;;;;5071748;28;20055;-68
2023/04/27 00:46:49;;;;;;;14.00;9.30;;;1.80;99.90;;;;;;5073816;28;20493;-68
2023/04/27 00:49:15;;;;;;;12.15;7.88;;;1.70;99.90;;;;;;5078393;28;20036;-68
2023/04/27 00:51:41;;;;;;;12.55;8.60;;;1.70;99.90;;;;;;5075695;28;20140;-68
2023/04/27 00:54:07;;;;;;;12.95;8.30;;;1.70;99.90;;;;;;5073910;28;20055;-68
2023/04/27 00:56:33;;;;;;;12.60;9.65;;;1.70;99.90;;;;;;5072737;28;20081;-67
2023/04/27 00:58:58;;;;;;;11.98;8.88;;;1.70;99.90;;;;;;5077200;28;20052;-68
2023/04/27 01:01:24;;;;;;;12.32;8.70;;;1.70;99.90;;;;;;5075541;28;20036;-68
2023/04/27 01:03:50;;;;;;;25.13;9.73;;;1.70;99.90;;;;;;5078088;28;20083;-68
2023/04/27 01:06:17;;;;;;;9.82;8.25;;;1.70;99.90;;;;;;5075265;28;20078;-68
2023/04/27 01:08:43;;;;;;;12.27;7.88;;;1.70;99.90;;;;;;5079503;28;20035;-68
2023/04/27 01:11:08;;;;;;;10.68;8.10;;;1.70;99.90;;;;;;5078951;28;20093;-68
2023/04/27 01:13:35;;;;;;;10.25;7.82;;;1.70;99.90;;;;;;5083202;28;20044;-68
2023/04/27 01:16:00;;;;;;;11.20;8.88;;;1.70;99.90;;;;;;5074533;28;20062;-68
2023/04/27 01:18:26;;;;;;;11.80;8.10;;;1.80;99.90;;;;;;5072356;28;20485;-68
2023/04/27 01:20:52;;;;;;;10.73;7.50;;;1.80;99.90;;;;;;5078161;28;20040;-68
2023/04/27 01:23:17;;;;;;;13.23;8.45;;;1.80;99.90;;;;;;5075434;28;20054;-68
2023/04/27 01:25:44;;;;;;;11.00;7.82;;;1.80;99.90;;;;;;5080042;28;20121;-68
2023/04/27 01:28:10;;;;;;;14.05;8.45;;;1.80;99.90;;;;;;5077614;28;20051;-68
2023/04/27 01:30:35;;;;;;;12.43;8.65;;;1.90;99.90;;;;;;5072877;28;20037;-68
2023/04/27 01:33:01;;;;;;;11.13;7.88;;;2.00;99.90;;;;;;5080553;28;20040;-68
2023/04/27 01:35:27;;;;;;;16.65;8.27;;;2.00;99.90;;;;;;5077262;28;20047;-68
2023/04/27 01:37:52;;;;;;;15.35;8.57;;;2.00;99.90;;;;;;5072270;28;20044;-68
2023/04/27 01:40:18;;;;;;;11.93;8.00;;;2.00;99.90;;;;;;5076117;28;20036;-68
2023/04/27 01:42:44;;;;;;;13.70;8.52;;;2.10;99.90;;;;;;5072742;28;20062;-68
2023/04/27 01:45:10;;;;;;;13.95;8.65;;;2.10;99.90;;;;;;5074418;28;20075;-68
2023/04/27 01:47:36;;;;;;;10.52;7.90;;;2.20;99.90;;;;;;5079502;28;20036;-68
2023/04/27 01:50:01;;;;;;;13.07;7.95;;;2.20;99.90;;;;;;5106386;27;20066;-68
2023/04/27 01:52:27;;;;;;;18.40;9.73;;;2.20;99.90;;;;;;5078589;28;20486;-68
2023/04/27 01:54:52;;;;;;;16.60;8.35;;;2.20;99.90;;;;;;5075663;28;20498;-68
2023/04/27 01:57:18;;;;;;;10.50;8.05;;;2.20;99.90;;;;;;5080147;28;20044;-68
2023/04/27 01:59:44;;;;;;;13.52;8.70;;;2.20;99.90;;;;;;5079516;28;21779;-68
2023/04/27 02:02:10;;;;;;;10.65;7.78;;;2.20;99.90;;;;;;5078040;28;20040;-68
2023/04/27 02:04:35;;;;;;;11.23;8.48;;;2.10;99.90;;;;;;5076151;28;20480;-68
2023/04/27 02:07:02;;;;;;;12.00;9.60;;;2.10;99.90;;;;;;5074541;28;20051;-68
2023/04/27 02:09:28;;;;;;;13.85;8.60;;;2.10;99.90;;;;;;5099089;27;20052;-67
2023/04/27 02:11:53;;;;;;;14.75;8.75;;;2.10;99.90;;;;;;5103684;27;20059;-68
2023/04/27 02:14:19;;;;;;;19.23;9.52;;;2.10;99.90;;;;;;5073424;28;20560;-68
2023/04/27 02:16:45;;;;;;;16.23;9.32;;;2.10;99.90;;;;;;5075246;28;20051;-68
2023/04/27 02:19:10;;;;;;;11.02;9.27;;;2.00;99.90;;;;;;5076276;28;20394;-68
2023/04/27 02:21:38;;;;;;;11.95;8.00;;;2.00;99.90;;;;;;5073834;28;20053;-67
2023/04/27 02:24:04;;;;;;;13.65;8.35;;;2.00;99.90;;;;;;5075988;28;20462;-68
2023/04/27 02:26:29;;;;;;;11.55;9.05;;;2.00;99.90;;;;;;5078437;28;20051;-68
2023/04/27 02:28:56;;;;;;;16.42;9.18;;;2.00;99.90;;;;;;5072899;28;20067;-68
2023/04/27 02:31:22;;;;;;;13.15;9.02;;;2.00;99.90;;;;;;5072231;28;20045;-68
2023/04/27 02:33:47;;;;;;;12.90;8.88;;;2.00;99.90;;;;;;5078284;28;20040;-68
2023/04/27 02:36:13;;;;;;;17.65;9.85;;;2.00;99.90;;;;;;5077681;28;20558;-68
2023/04/27 02:38:39;;;;;;;16.88;9.90;;;2.00;99.90;;;;;;5076597;28;20044;-68
2023/04/27 02:41:04;;;;;;;15.27;9.10;;;2.00;99.90;;;;;;5074886;28;20150;-67
2023/04/27 02:43:30;;;;;;;11.43;8.75;;;1.90;99.90;;;;;;5072677;28;20086;-68
2023/04/27 02:45:55;;;;;;;13.00;9.07;;;1.90;99.90;;;;;;5078753;28;20401;-68
2023/04/27 02:48:21;;;;;;;18.92;10.65;;;1.90;99.90;;;;;;5074866;28;20443;-68
2023/04/27 02:50:47;;;;;;;9.75;7.82;;;1.80;99.90;;;;;;5079411;28;20555;-67
2023/04/27 02:53:12;;;;;;;11.68;8.88;;;1.80;99.90;;;;;;5078485;28;20048;-68
2023/04/27 02:55:46;;;;;;;12.75;9.52;;;1.80;99.90;;;;;;5073690;28;20386;-67
2023/04/27 02:58:12;;;;;;;15.13;9.23;;;1.80;99.90;;;;;;5078137;28;20052;-67
2023/04/27 03:00:39;;;;;;;10.23;8.23;;;1.70;99.90;;;;;;5072984;28;20394;-68
2023/04/27 03:03:06;;;;;;;13.23;9.60;;;1.70;99.90;;;;;;5079139;28;20040;-67
2023/04/27 03:05:32;;;;;;;13.82;9.38;;;1.70;99.90;;;;;;5076213;28;20119;-68
2023/04/27 03:07:58;;;;;;;11.75;8.93;;;1.70;99.90;;;;;;5073376;28;20119;-68
2023/04/27 03:10:24;;;;;;;15.48;8.82;;;1.70;99.90;;;;;;5073175;28;20129;-68
2023/04/27 03:12:49;;;;;;;13.52;8.82;;;1.60;99.90;;;;;;5076990;28;20048;-68
2023/04/27 03:15:15;;;;;;;12.35;8.02;;;1.60;99.90;;;;;;5080294;28;20028;-68
2023/04/27 03:17:41;;;;;;;16.55;10.48;;;1.60;99.90;;;;;;5074897;28;20516;-68
2023/04/27 03:20:08;;;;;;;15.73;10.10;;;1.60;99.90;;;;;;5084286;28;20036;-67
2023/04/27 03:22:35;;;;;;;24.07;9.93;;;1.50;99.90;;;;;;5077685;28;20570;-68
2023/04/27 03:25:02;;;;;;;13.95;10.02;;;1.50;99.90;;;;;;5077647;28;20301;-68
2023/04/27 03:27:27;;;;;;;13.20;9.32;;;1.50;99.90;;;;;;5083379;28;20523;-67
2023/04/27 03:29:53;;;;;;;18.60;9.80;;;1.50;99.90;;;;;;5075020;28;20040;-67
2023/04/27 03:32:19;;;;;;;14.45;10.00;;;1.50;99.90;;;;;;5078826;28;20071;-68
2023/04/27 03:34:46;;;;;;;14.60;9.38;;;1.50;99.90;;;;;;5084237;28;20104;-68
2023/04/27 03:37:12;;;;;;;15.45;9.60;;;1.50;99.90;;;;;;5083762;28;20066;-68
2023/04/27 03:39:38;;;;;;;19.60;10.23;;;1.40;99.90;;;;;;5081169;28;20090;-67
2023/04/27 03:42:04;;;;;;;13.00;9.02;;;1.40;99.90;;;;;;5073892;28;20131;-67
2023/04/27 03:44:33;;;;;;;9.40;8.15;;;1.40;99.90;;;;;;5078244;28;20076;-67
2023/04/27 03:46:59;;;;;;;16.70;9.45;;;1.40;99.90;;;;;;5083085;28;20169;-67
2023/04/27 03:49:25;;;;;;;14.10;9.32;;;1.40;99.90;;;;;;5081329;28;20106;-67
2023/04/27 03:51:51;;;;;;;16.85;8.85;;;1.30;99.90;;;;;;5074254;28;20467;-68
2023/04/27 03:54:16;;;;;;;12.43;8.73;;;1.30;99.90;;;;;;5086772;28;20084;-67
2023/04/27 03:56:43;;;;;;;13.80;9.25;;;1.30;99.90;;;;;;5077491;28;20036;-68
2023/04/27 03:59:09;;;;;;;13.93;9.70;;;1.30;99.90;;;;;;5080681;28;20074;-67
2023/04/27 04:01:35;;;;;;;12.82;8.98;;;1.30;99.90;;;;;;5090083;28;20139;-67
2023/04/27 04:04:01;;;;;;;9.80;8.13;;;1.30;99.90;;;;;;5075234;28;20040;-68
2023/04/27 04:06:27;;;;;;;13.73;8.45;;;1.30;99.90;;;;;;5071795;28;20411;-67
2023/04/27 04:08:53;;;;;;;15.60;10.95;;;1.20;99.90;;;;;;5081336;28;20048;-67
2023/04/27 04:11:19;;;;;;;15.00;10.50;;;1.20;99.90;;;;;;5079064;28;20043;-67
2023/04/27 04:13:46;;;;;;;12.57;9.63;;;1.20;99.90;;;;;;5077581;28;20112;-67
2023/04/27 04:16:12;;;;;;;14.35;9.57;;;1.20;99.90;;;;;;5079739;28;20489;-67
2023/04/27 04:18:38;;;;;;;16.77;9.73;;;1.20;99.90;;;;;;5076455;28;20047;-67
2023/04/27 04:21:04;;;;;;;12.73;8.93;;;1.20;99.90;;;;;;5070664;28;20105;-67
2023/04/27 04:23:31;;;;;;;12.77;8.70;;;1.30;99.90;;;;;;5077580;28;20072;-67
2023/04/27 04:25:57;;;;;;;16.40;11.30;;;1.50;99.90;;;;;;5078194;28;20055;-67
2023/04/27 04:28:23;;;;;;;12.50;9.07;;;1.70;99.90;;;;;;5078759;28;20621;-67
2023/04/27 04:30:49;;;;;;;12.82;8.65;;;1.80;99.90;;;;;;5076971;28;20040;-67
2023/04/27 04:33:16;;;;;;;13.45;9.70;;;1.80;99.90;;;;;;5078936;28;20053;-67
2023/04/27 04:35:42;;;;;;;17.10;9.52;;;1.70;99.90;;;;;;5073913;28;20127;-67
2023/04/27 04:38:08;;;;;;;16.42;10.02;;;1.80;99.90;;;;;;5076600;28;20173;-67
2023/04/27 04:40:34;;;;;;;11.00;8.45;;;2.10;99.90;;;;;;5075623;28;20048;-67
2023/04/27 04:43:00;;;;;;;17.05;9.52;;;2.50;99.90;;;;;;5076778;28;20063;-68
2023/04/27 04:45:27;;;;;;;14.27;9.27;;;2.70;99.90;;;;;;5074841;28;21974;-67
2023/04/27 04:47:54;;;;;;;14.32;9.68;;;2.90;99.90;;;;;;5070108;28;20455;-68
2023/04/27 04:50:23;;;;;;;12.90;9.23;;;3.20;99.90;;;;;;5074398;28;20047;-69
2023/04/27 04:52:49;;;;;;;15.73;9.32;;;3.50;99.90;;;;;;5077270;28;20477;-68
2023/04/27 04:55:15;;;;;;;12.55;10.00;;;3.40;99.90;;;;;;5071402;28;20105;-68
2023/04/27 04:57:40;;;;;;;13.27;10.20;;;3.20;99.90;;;;;;5072008;28;20040;-68
2023/04/27 05:00:11;;;;;;;14.15;9.07;;;2.90;99.90;;;;;;5072180;28;20040;-67
2023/04/27 05:02:37;;;;;;;11.35;9.68;;;2.70;99.90;;;;;;5076182;28;20040;-67
2023/04/27 05:05:03;;;;;;;16.33;9.50;;;2.50;99.90;;;;;;5077457;28;20071;-68
2023/04/27 05:07:29;;;;;;;17.08;9.65;;;2.30;99.90;;;;;;5078763;28;20489;-67
2023/04/27 05:09:54;;;;;;;13.50;9.95;;;2.30;99.90;;;;;;5078882;28;20052;-67
2023/04/27 05:12:20;;;;;;;14.23;10.55;;;2.30;99.90;;;;;;5080507;28;20040;-68
2023/04/27 05:14:47;;;;;;;15.25;10.45;;;2.80;99.90;;;;;;5077262;28;20044;-67
2023/04/27 05:17:13;;;;;;;17.33;10.90;;;3.40;99.90;;;;;;5073815;28;20055;-67
2023/04/27 05:19:39;;;;;;;15.63;10.45;;;4.00;99.90;;;;;;5078263;28;20044;-67
2023/04/27 05:22:06;;;;;;;14.55;10.77;;;4.70;99.90;;;;;;5078391;28;20044;-68
2023/04/27 05:24:32;;;;;;;22.25;11.18;;;4.90;99.90;;;;;;5081262;28;20385;-67
2023/04/27 05:26:59;;;;;;;18.55;11.98;;;4.60;99.90;;;;;;5080775;28;20043;-68
2023/04/27 05:29:26;;;;;;;14.75;10.52;;;4.30;99.90;;;;;;5073918;28;20147;-67
2023/04/27 05:31:52;;;;;;;17.77;11.38;;;4.00;99.90;;;;;;5075134;28;20063;-67
2023/04/27 05:34:23;;;;;;;15.57;11.15;;;3.70;99.90;;;;;;5083233;28;20043;-67
2023/04/27 05:36:49;;;;;;;15.15;11.07;;;3.60;99.90;;;;;;5075067;28;20182;-68
2023/04/27 05:39:14;;;;;;;13.00;10.32;;;3.60;99.90;;;;;;5075957;28;20159;-68
2023/04/27 05:41:40;;;;;;;14.25;9.70;;;4.00;99.90;;;;;;5072936;28;20048;-67
2023/04/27 05:44:06;;;;;;;13.48;10.63;;;4.30;99.90;;;;;;5072868;28;20044;-68
2023/04/27 05:46:32;;;;;;;23.30;12.48;;;4.80;99.90;;;;;;5075854;28;20044;-68
2023/04/27 05:48:58;;;;;;;16.52;10.90;;;5.20;99.90;;;;;;5092233;28;20055;-68
2023/04/27 05:51:24;;;;;;;17.67;11.18;;;5.50;99.90;;;;;;5077329;28;20126;-68
2023/04/27 05:53:54;;;;;;;15.35;10.88;;;5.60;99.90;;;;;;5078039;28;20520;-68
2023/04/27 05:56:20;;;;;;;17.40;10.65;;;5.70;99.90;;;;;;5080210;28;20050;-68
2023/04/27 05:58:46;;;;;;;16.55;11.90;;;5.60;99.90;;;;;;5077568;28;20125;-68
2023/04/27 06:01:11;;;;;;;14.75;11.52;;;5.50;99.90;;;;;;5075955;28;20775;-68
2023/04/27 06:03:37;;;;;;;18.60;11.10;;;5.40;99.90;;;;;;5079167;28;20036;-68
2023/04/27 06:06:03;;;;;;;14.88;10.20;;;5.40;99.90;;;;;;5064709;28;20677;-68
2023/04/27 06:08:29;;;;;;;21.25;12.10;;;5.50;99.90;;;;;;5096076;27;20083;-68
2023/04/27 06:10:55;;;;;;;24.25;12.60;;;5.60;99.90;;;;;;5065082;28;20117;-68
2023/04/27 06:13:21;;;;;;;23.67;11.65;;;5.60;99.90;;;;;;5066290;28;20582;-68
2023/04/27 06:15:47;;;;;;;19.95;10.65;;;5.70;99.90;;;;;;5066377;28;20040;-68
2023/04/27 06:18:14;;;;;;;24.38;13.80;;;5.70;99.90;;;;;;5064923;28;20048;-68
2023/04/27 06:20:41;;;;;;;20.05;12.10;;;5.90;99.90;;;;;;5064657;28;20547;-68
2023/04/27 06:23:06;;;;;;;16.58;10.63;;;6.00;99.90;;;;;;5065062;28;20047;-68
2023/04/27 06:25:39;;;;;;;14.70;10.52;;;6.10;99.90;;;;;;5063413;28;20781;-68
2023/04/27 06:28:06;;;;;;;15.30;10.50;;;6.10;99.90;;;;;;5064327;28;20060;-68
2023/04/27 06:30:32;;;;;;;16.85;10.60;;;6.10;99.90;;;;;;5064120;28;20044;-68
2023/04/27 06:32:57;;;;;;;14.00;9.30;;;6.10;99.90;;;;;;5063630;28;20047;-68
2023/04/27 06:35:24;;;;;;;13.98;9.50;;;6.10;99.90;;;;;;5061140;28;20040;-68
2023/04/27 06:37:50;;;;;;;20.30;10.52;;;6.20;99.90;;;;;;5065197;28;20113;-68
2023/04/27 06:40:18;;;;;;;13.18;9.20;;;6.30;99.90;;;;;;5065073;28;20131;-69
2023/04/27 06:42:43;;;;;;;13.88;10.27;;;6.40;99.90;;;;;;5062185;28;20048;-69
2023/04/27 06:45:10;;;;;;;17.00;10.75;;;6.40;99.90;;;;;;5064364;28;20063;-68
2023/04/27 06:47:36;;;;;;;15.30;9.43;;;6.50;99.90;;;;;;5061582;28;20053;-68
2023/04/27 06:50:02;;;;;;;14.38;9.05;;;6.70;99.90;;;;;;5061728;28;20044;-69
2023/04/27 06:52:31;;;;;;;17.05;9.77;;;6.90;99.90;;;;;;5066500;28;20066;-70
2023/04/27 06:55:07;;;;;;;16.23;7.90;;;7.10;99.90;;;;;;5100093;27;20064;-70
2023/04/27 06:57:33;;;;;;;18.13;7.93;;;7.40;99.90;;;;;;5068157;28;20056;-70
2023/04/27 06:59:59;;;;;;;12.57;8.05;;;7.60;99.90;;;;;;5067174;28;20045;-69
2023/04/27 07:02:25;;;;;;;9.93;7.15;;;7.90;99.90;;;;;;5065164;28;20146;-70
2023/04/27 07:04:50;;;;;;;11.77;6.78;;;8.20;99.90;;;;;;5062230;28;20862;-70
2023/04/27 07:07:17;;;;;;;12.32;7.50;;;8.50;99.90;;;;;;5063107;28;20110;-70
2023/04/27 07:09:43;;;;;;;9.40;7.50;;;8.70;99.90;;;;;;5067596;28;20134;-70
2023/04/27 07:12:08;;;;;;;9.73;7.05;;;8.90;99.90;;;;;;5062614;28;20088;-70
2023/04/27 07:14:35;;;;;;;10.43;6.72;;;9.20;99.90;;;;;;5062481;28;20051;-69
2023/04/27 07:17:00;;;;;;;7.63;6.82;;;9.40;99.90;;;;;;5067411;28;20079;-70
2023/04/27 07:19:26;;;;;;;12.50;7.20;;;9.70;99.90;;;;;;5063723;28;20604;-70
2023/04/27 07:21:51;;;;;;;9.80;6.50;;;9.90;99.90;;;;;;5063122;28;20117;-70
2023/04/27 07:24:19;;;;;;;9.85;7.15;;;10.10;99.90;;;;;;5066580;28;20828;-70
2023/04/27 07:26:45;;;;;;;15.53;7.13;;;10.20;99.90;;;;;;5049919;28;20060;-70
2023/04/27 07:29:12;;;;;;;12.90;7.68;;;10.30;99.90;;;;;;5065993;28;21636;-70
2023/04/27 07:31:37;;;;;;;9.02;6.82;;;10.50;99.90;;;;;;5065110;28;20149;-70
2023/04/27 07:34:03;;;;;;;11.27;6.05;;;10.60;99.90;;;;;;5065422;28;20433;-71
2023/04/27 07:36:30;;;;;;;7.55;6.10;;;10.80;99.90;;;;;;5065305;28;20063;-70
2023/04/27 07:38:57;;;;;;;15.18;6.72;;;11.00;99.90;;;;;;5065638;28;20048;-70
2023/04/27 07:41:23;;;;;;;6.60;5.95;;;11.10;99.90;;;;;;5061981;28;20194;-71
2023/04/27 07:43:50;;;;;;;8.98;5.32;;;11.30;99.90;;;;;;5064032;28;20143;-70
2023/04/27 07:46:17;;;;;;;5.40;4.90;;;11.50;99.90;;;;;;5063454;28;20594;-70
2023/04/27 07:48:43;;;;;;;14.93;10.60;;;11.60;99.90;;;;;;5068499;28;20048;-70
2023/04/27 07:51:09;;;;;;;13.48;9.07;;;11.60;99.90;;;;;;5098096;27;20049;-71
2023/04/27 07:53:36;;;;;;;8.63;6.80;;;11.60;97.80;;;;;;5064656;28;20054;-70
2023/04/27 07:56:04;;;;;;;8.48;7.25;;;11.70;96.70;;;;;;5066443;28;21861;-70
2023/04/27 07:58:30;;;;;;;8.23;6.70;;;11.80;97.10;;;;;;5065276;28;20075;-70
2023/04/27 08:00:56;;;;;;;9.82;6.35;;;12.00;95.80;;;;;;5062930;28;20135;-70
2023/04/27 08:03:21;;;;;;;6.50;5.47;;;12.10;92.50;;;;;;5061138;28;20102;-70
2023/04/27 08:05:47;;;;;;;9.10;5.72;;;12.10;88.10;;;;;;5064496;28;20141;-70
2023/04/27 08:08:13;;;;;;;6.60;4.93;;;12.20;90.00;;;;;;5067490;28;20109;-71
2023/04/27 08:10:38;;;;;;;5.78;4.63;;;12.30;89.20;;;;;;5066240;28;20055;-70
2023/04/27 08:13:04;;;;;;;4.47;3.67;;;12.50;84.00;;;;;;5066153;28;20043;-70
2023/04/27 08:15:30;;;;;;;9.05;3.85;;;12.50;79.60;;;;;;5066659;28;20077;-70
2023/04/27 08:17:55;;;;;;;7.10;4.03;;;12.70;76.30;;;;;;5066247;28;20048;-70
2023/04/27 08:20:21;;;;;;;5.00;4.28;;;12.80;74.10;;;;;;5067138;28;20048;-70
2023/04/27 08:22:49;;;;;;;8.60;4.47;;;13.00;75.30;;;;;;5066483;28;20040;-68
2023/04/27 08:25:15;;;;;;;6.47;4.72;;;13.20;75.50;;;;;;5066020;28;20131;-69
2023/04/27 08:27:41;;;;;;;10.45;5.68;;;13.30;74.90;;;;;;5067763;28;20041;-69
2023/04/27 08:30:07;;;;;;;7.70;4.85;;;13.40;73.40;;;;;;5065201;28;20036;-68
2023/04/27 08:32:33;;;;;;;6.82;4.65;;;13.50;72.50;;;;;;5066108;28;20135;-71
2023/04/27 08:34:58;;;;;;;11.23;5.45;;;13.60;69.10;;;;;;5065739;28;20047;-68
2023/04/27 08:37:24;;;;;;;13.30;6.25;;;13.60;68.80;;;;;;5067207;28;20047;-70
2023/04/27 08:39:50;;;;;;;10.07;5.78;;;13.60;68.70;;;;;;5067387;28;20575;-67
2023/04/27 08:42:15;;;;;;;10.05;6.72;;;13.60;68.60;;;;;;5066652;28;20473;-70
2023/04/27 08:44:42;;;;;;;9.07;6.03;;;13.70;68.40;;;;;;5067607;28;20603;-69
2023/04/27 08:47:09;;;;;;;14.35;6.93;;;13.70;67.90;;;;;;5063883;28;20041;-69
2023/04/27 08:49:37;;;;;;;7.25;6.45;;;13.80;69.00;;;;;;5063350;28;20056;-70
2023/04/27 08:52:03;;;;;;;7.43;6.43;;;14.00;68.50;;;;;;5066947;28;20060;-71
2023/04/27 08:54:29;;;;;;;14.77;8.38;;;13.90;67.90;;;;;;5065254;28;20056;-70
2023/04/27 08:56:55;;;;;;;11.43;7.82;;;13.90;68.90;;;;;;5065361;28;20068;-70
2023/04/27 08:59:22;;;;;;;8.70;6.70;;;13.90;67.90;;;;;;5063285;28;20148;-70
2023/04/27 09:01:49;;;;;;;7.35;5.30;;;14.10;68.40;;;;;;5064941;28;20523;-70
2023/04/27 09:04:16;;;;;;;11.68;8.57;;;14.20;68.30;;;;;;5061913;28;20041;-71
2023/04/27 09:06:42;;;;;;;7.85;6.90;;;14.40;67.20;;;;;;5063036;28;20051;-71
2023/04/27 09:09:08;;;;;;;5.53;4.65;;;14.50;67.70;;;;;;5063531;28;20079;-71
2023/04/27 09:11:35;;;;;;;7.40;5.95;;;14.70;67.50;;;;;;5065691;28;20041;-71
2023/04/27 09:14:13;;;;;;;7.82;5.47;;;14.80;66.70;;;;;;5064686;28;20056;-72
2023/04/27 09:16:39;;;;;;;10.10;6.78;;;14.90;67.50;;;;;;5062864;28;20729;-70
2023/04/27 09:19:05;;;;;;;7.80;6.72;;;15.10;67.80;;;;;;5062173;28;20090;-70
2023/04/27 09:21:31;;;;;;;10.43;7.25;;;15.20;65.50;;;;;;5063519;28;20052;-71
2023/04/27 09:23:57;;;;;;;11.95;6.82;;;15.20;62.90;;;;;;5064292;28;20055;-70
2023/04/27 09:26:24;;;;;;;10.95;6.93;;;15.00;61.30;;;;;;5064220;28;20447;-70
2023/04/27 09:28:57;;;;;;;10.13;6.25;;;14.90;61.90;;;;;;5064471;28;20052;-70
2023/04/27 09:31:35;;;;;;;6.03;5.53;;;14.80;63.90;;;;;;5063008;28;20089;-70
2023/04/27 09:34:02;;;;;;;7.88;6.43;;;14.90;64.60;;;;;;5063024;28;20053;-70
2023/04/27 09:36:29;;;;;;;7.50;6.20;;;15.10;65.40;;;;;;5064278;28;20067;-71
2023/04/27 09:38:55;;;;;;;9.38;6.75;;;15.20;64.50;;;;;;5062618;28;20048;-71
2023/04/27 09:41:21;;;;;;;8.63;6.82;;;15.40;64.00;;;;;;5060490;28;20094;-70
2023/04/27 09:43:47;;;;;;;11.35;6.22;;;15.50;61.80;;;;;;5059293;28;20155;-70
2023/04/27 09:46:13;;;;;;;12.02;6.78;;;15.40;60.70;;;;;;5063961;28;20060;-70
2023/04/27 09:48:40;;;;;;;12.60;8.07;;;15.20;60.30;;;;;;5062591;28;20048;-71
2023/04/27 09:51:06;;;;;;;12.45;8.45;;;14.90;60.40;;;;;;5062214;28;20052;-71
2023/04/27 09:53:43;;;;;;;11.05;7.47;;;14.70;60.00;;;;;;5061910;28;20410;-70
2023/04/27 09:56:25;;;;;;;14.50;8.07;;;14.80;62.20;;;;;;5062853;28;20536;-70
2023/04/27 09:59:12;;;;;;;12.88;8.15;;;14.90;62.30;;;;;;5060619;28;20863;-70
2023/04/27 10:01:54;;;;;;;19.13;8.77;;;15.00;62.30;;;;;;5058701;28;20138;-70
2023/04/27 10:04:56;;;;;;;13.38;8.27;;;14.90;61.60;;;;;;5058917;28;20040;-71
2023/04/27 10:07:25;;;;;;;13.35;8.38;;;15.10;60.10;;;;;;5059817;28;20063;-70
2023/04/27 10:09:51;;;;;;;14.60;7.85;;;15.10;61.70;;;;;;5059379;28;20056;-70
2023/04/27 10:12:20;;;;;;;8.95;7.68;;;15.10;61.70;;;;;;5057728;28;20082;-70
2023/04/27 10:14:54;;;;;;;11.98;8.55;;;15.00;60.70;;;;;;5063621;28;20869;-70
2023/04/27 10:17:31;;;;;;;13.70;9.88;;;14.90;61.00;;;;;;5064444;28;20035;-70
2023/04/27 10:20:08;;;;;;;12.95;8.10;;;14.80;60.80;;;;;;5063778;28;20045;-71
2023/04/27 10:22:48;;;;;;;12.73;8.65;;;14.60;60.00;;;;;;5063433;28;20153;-72
2023/04/27 10:25:25;;;;;;;17.17;9.35;;;14.40;60.40;;;;;;5063052;28;20493;-70
2023/04/27 10:27:58;;;;;;;12.98;9.45;;;14.40;62.00;;;;;;5061266;28;20053;-72
2023/04/27 10:30:35;;;;;;;14.05;8.85;;;14.40;62.70;;;;;;5061960;28;20060;-69
2023/04/27 10:33:09;;;;;;;10.35;9.27;;;14.60;62.70;;;;;;5063834;28;20047;-68
2023/04/27 10:35:37;;;;;;;15.60;9.77;;;14.70;61.20;;;;;;5062890;28;20052;-70
2023/04/27 10:38:09;;;;;;;16.05;8.93;;;14.70;60.30;;;;;;5062586;28;20041;-69
2023/04/27 10:40:37;;;;;;;14.43;9.10;;;14.80;61.00;;;;;;5061970;28;20076;-69
2023/04/27 10:43:10;;;;;;;19.92;10.35;;;14.90;60.20;;;;;;5062967;28;20044;-69
2023/04/27 10:45:36;;;;;;;15.35;9.10;;;15.10;60.70;;;;;;5062251;28;20044;-69
2023/04/27 10:48:02;;;;;;;11.25;9.27;;;15.30;61.10;;;;;;5063343;28;20048;-71
2023/04/27 10:50:28;;;;;;;13.80;9.25;;;15.50;60.50;;;;;;5062207;28;20048;-69
2023/04/27 10:52:58;;;;;;;11.32;8.57;;;15.70;62.00;;;;;;5061868;28;20048;-71
2023/04/27 10:55:25;;;;;;;14.52;9.43;;;15.80;61.80;;;;;;5062398;28;20060;-72
2023/04/27 10:57:53;;;;;;;17.90;10.63;;;15.80;59.20;;;;;;5061938;28;20135;-71
2023/04/27 11:00:28;;;;;;;12.68;9.70;;;15.70;59.20;;;;;;5064282;28;20310;-70
2023/04/27 11:02:56;;;;;;;19.80;10.88;;;15.60;58.80;;;;;;5062834;28;20123;-70
2023/04/27 11:05:24;;;;;;;;;;;15.60;59.00;;;;;;5063996;28;20166;-73
2023/04/27 11:07:51;;;;;;;12.20;8.82;;;15.50;58.50;;;;;;5091849;27;19932;-71
2023/04/27 11:10:18;;;;;;;17.17;9.52;;;15.50;59.30;;;;;;5060095;28;20515;-70
2023/04/27 11:12:44;;;;;;;12.77;9.73;;;15.50;60.00;;;;;;5060675;28;20051;-70
2023/04/27 11:15:12;;;;;;;11.60;9.20;;;15.50;59.20;;;;;;5060668;28;20041;-70
2023/04/27 11:17:39;;;;;;;17.77;9.15;;;15.40;58.30;;;;;;5063315;28;20060;-70
2023/04/27 11:20:08;;;;;;;12.90;9.80;;;15.40;58.60;;;;;;5062701;28;20051;-70
2023/04/27 11:22:43;;;;;;;12.10;9.00;;;15.50;59.60;;;;;;5064533;28;20040;-70
2023/04/27 11:25:10;;;;;;;16.73;10.77;;;15.60;59.20;;;;;;5064036;28;20051;-70
2023/04/27 11:27:40;;;;;;;12.13;8.95;;;15.50;59.50;;;;;;5061916;28;20056;-70
2023/04/27 11:30:17;;;;;;;14.00;9.50;;;15.50;59.90;;;;;;5062842;28;20102;-70
2023/04/27 11:32:42;;;;;;;15.20;10.32;;;15.50;59.80;;;;;;5060988;28;20128;-70
2023/04/27 11:35:09;;;;;;;12.52;9.85;;;15.40;60.10;;;;;;5063503;28;21130;-70
2023/04/27 11:37:35;;;;;;;13.80;9.05;;;15.30;59.60;;;;;;5066831;28;20052;-70
2023/04/27 11:40:00;;;;;;;17.27;9.13;;;15.20;59.50;;;;;;5064017;28;20041;-70
2023/04/27 11:42:27;;;;;;;14.43;9.00;;;15.10;59.80;;;;;;5065820;28;20032;-70
2023/04/27 11:45:00;;;;;;;12.35;9.88;;;15.10;60.30;;;;;;5069266;28;20039;-69
2023/04/27 11:47:29;;;;;;;9.88;8.23;;;15.10;59.50;;;;;;5064793;28;20040;-70
2023/04/27 11:49:56;;;;;;;9.75;7.97;;;15.10;59.30;;;;;;5064136;28;20048;-70
2023/04/27 11:52:30;;;;;;;12.82;9.57;;;15.00;59.90;;;;;;5062905;28;20052;-69
2023/04/27 11:54:57;;;;;;;11.93;9.40;;;15.10;60.20;;;;;;5072805;28;20055;-70
2023/04/27 11:57:35;;;;;;;16.20;9.45;;;15.10;59.40;;;;;;5080978;28;20119;-69
2023/04/27 12:00:09;;;;;;;11.85;8.40;;;15.20;59.60;;;;;;5077767;28;20184;-70
2023/04/27 12:02:35;;;;;;;13.65;9.85;;;15.30;60.30;;;;;;5110868;27;20047;-69
2023/04/27 12:05:02;;;;;;;11.77;9.77;;;15.40;59.80;;;;;;5080285;28;20118;-70
2023/04/27 12:07:28;;;;;;;10.90;9.35;;;15.50;59.60;;;;;;5078513;28;20047;-69
2023/04/27 12:09:55;;;;;;;13.48;10.15;;;15.60;57.60;;;;;;5079620;28;20052;-69
2023/04/27 12:12:21;;;;;;;15.55;9.88;;;15.50;56.50;;;;;;5084630;28;20092;-69
2023/04/27 12:14:48;;;;;;;18.60;10.13;;;15.40;56.90;;;;;;5077846;28;20171;-69
2023/04/27 12:17:14;;;;;;;12.82;9.45;;;15.20;56.40;;;;;;5075720;28;20993;-69
2023/04/27 12:19:39;;;;;;;12.10;8.45;;;15.20;56.60;;;;;;5074119;28;20122;-69
2023/04/27 12:22:05;;;;;;;16.17;10.27;;;15.10;56.00;;;;;;5079121;28;20036;-69
2023/04/27 12:24:31;;;;;;;15.90;8.88;;;15.10;56.10;;;;;;5079196;28;20523;-69
2023/04/27 12:26:58;;;;;;;12.85;8.95;;;15.00;56.10;;;;;;5072688;28;20064;-69
2023/04/27 12:29:24;;;;;;;10.40;9.07;;;15.00;56.60;;;;;;5078171;28;20044;-69
2023/04/27 12:31:50;;;;;;;11.63;9.23;;;15.00;57.00;;;;;;5080255;28;20518;-69
2023/04/27 12:34:16;;;;;;;11.88;9.10;;;15.10;58.40;;;;;;5077760;28;20039;-69
2023/04/27 12:36:42;;;;;;;12.05;9.05;;;15.10;57.30;;;;;;5075812;28;20769;-69
2023/04/27 12:39:16;;;;;;;9.35;7.68;;;15.00;57.70;;;;;;5078173;28;20103;-69
2023/04/27 12:41:43;;;;;;;12.05;9.35;;;14.90;58.60;;;;;;5078281;28;20131;-69